sensor_id;sensor_type;location;lat;lon;timestamp;P1;durP1;ratioP1;P2;durP2;ratioP2
23432;SDS011;41331;45.412;10.992;2024-02-23T00:01:27;47.20;;;44.05;;
23432;SDS011;41331;45.412;10.992;2024-02-23T00:03:55;17.63;;;16.17;;
23432;SDS011;41331;45.412;10.992;2024-02-23T00:06:23;20.83;;;19.23;;
23432;SDS011;41331;45.412;10.992;2024-02-23T00:08:55;22.80;;;21.00;;
23432;SDS011;41331;45.412;10.992;2024-02-23T00:11:23;21.92;;;20.35;;
23432;SDS011;41331;45.412;10.992;2024-02-23T00:13:51;24.08;;;22.35;;
23432;SDS011;41331;45.412;10.992;2024-02-23T00:16:19;38.08;;;35.53;;
23432;SDS011;41331;45.412;10.992;2024-02-23T00:18:47;55.15;;;51.67;;
23432;SDS011;41331;45.412;10.992;2024-02-23T00:21:15;56.75;;;53.10;;
23432;SDS011;41331;45.412;10.992;2024-02-23T00:23:43;63.83;;;59.85;;
23432;SDS011;41331;45.412;10.992;2024-02-23T00:26:11;83.20;;;78.05;;
23432;SDS011;41331;45.412;10.992;2024-02-23T00:28:38;138.35;;;129.50;;
23432;SDS011;41331;45.412;10.992;2024-02-23T00:31:06;149.68;;;140.07;;
23432;SDS011;41331;45.412;10.992;2024-02-23T00:33:34;118.47;;;110.57;;
23432;SDS011;41331;45.412;10.992;2024-02-23T00:36:02;78.32;;;73.43;;
23432;SDS011;41331;45.412;10.992;2024-02-23T00:38:30;76.95;;;72.13;;
23432;SDS011;41331;45.412;10.992;2024-02-23T00:40:58;98.13;;;91.82;;
23432;SDS011;41331;45.412;10.992;2024-02-23T00:43:26;86.32;;;81.10;;
23432;SDS011;41331;45.412;10.992;2024-02-23T00:45:56;35.25;;;32.90;;
23432;SDS011;41331;45.412;10.992;2024-02-23T00:48:24;25.55;;;23.60;;
23432;SDS011;41331;45.412;10.992;2024-02-23T00:50:52;17.77;;;16.40;;
23432;SDS011;41331;45.412;10.992;2024-02-23T00:53:19;12.25;;;11.30;;
23432;SDS011;41331;45.412;10.992;2024-02-23T00:55:51;14.60;;;13.20;;
23432;SDS011;41331;45.412;10.992;2024-02-23T00:58:18;15.20;;;14.15;;
23432;SDS011;41331;45.412;10.992;2024-02-23T01:00:46;18.48;;;17.23;;
23432;SDS011;41331;45.412;10.992;2024-02-23T01:03:14;18.77;;;17.48;;
23432;SDS011;41331;45.412;10.992;2024-02-23T01:05:42;24.90;;;23.13;;
23432;SDS011;41331;45.412;10.992;2024-02-23T01:08:10;14.02;;;12.90;;
23432;SDS011;41331;45.412;10.992;2024-02-23T01:10:38;13.77;;;12.75;;
23432;SDS011;41331;45.412;10.992;2024-02-23T01:13:05;12.07;;;9.85;;
23432;SDS011;41331;45.412;10.992;2024-02-23T01:15:33;27.60;;;25.65;;
23432;SDS011;41331;45.412;10.992;2024-02-23T01:18:01;36.80;;;34.33;;
23432;SDS011;41331;45.412;10.992;2024-02-23T01:20:30;26.08;;;24.30;;
23432;SDS011;41331;45.412;10.992;2024-02-23T01:22:58;34.85;;;32.60;;
23432;SDS011;41331;45.412;10.992;2024-02-23T01:25:26;39.40;;;36.75;;
23432;SDS011;41331;45.412;10.992;2024-02-23T01:27:53;39.45;;;36.97;;
23432;SDS011;41331;45.412;10.992;2024-02-23T01:30:21;47.20;;;44.17;;
23432;SDS011;41331;45.412;10.992;2024-02-23T01:32:49;38.65;;;36.30;;
23432;SDS011;41331;45.412;10.992;2024-02-23T01:35:18;37.17;;;34.83;;
23432;SDS011;41331;45.412;10.992;2024-02-23T01:37:46;55.60;;;52.20;;
23432;SDS011;41331;45.412;10.992;2024-02-23T01:40:13;69.75;;;65.55;;
23432;SDS011;41331;45.412;10.992;2024-02-23T01:42:41;74.25;;;69.75;;
23432;SDS011;41331;45.412;10.992;2024-02-23T01:45:09;63.90;;;59.88;;
23432;SDS011;41331;45.412;10.992;2024-02-23T01:47:37;31.15;;;29.20;;
23432;SDS011;41331;45.412;10.992;2024-02-23T01:50:05;54.38;;;51.13;;
23432;SDS011;41331;45.412;10.992;2024-02-23T01:52:36;44.70;;;41.80;;
23432;SDS011;41331;45.412;10.992;2024-02-23T01:55:04;21.38;;;19.98;;
23432;SDS011;41331;45.412;10.992;2024-02-23T01:57:32;52.22;;;48.80;;
23432;SDS011;41331;45.412;10.992;2024-02-23T02:00:17;34.80;;;32.65;;
23432;SDS011;41331;45.412;10.992;2024-02-23T02:02:52;23.83;;;22.30;;
23432;SDS011;41331;45.412;10.992;2024-02-23T02:05:21;47.00;;;43.92;;
23432;SDS011;41331;45.412;10.992;2024-02-23T02:07:50;57.40;;;53.95;;
23432;SDS011;41331;45.412;10.992;2024-02-23T02:10:21;62.75;;;58.85;;
23432;SDS011;41331;45.412;10.992;2024-02-23T02:12:49;62.20;;;58.45;;
23432;SDS011;41331;45.412;10.992;2024-02-23T02:15:17;63.95;;;60.05;;
23432;SDS011;41331;45.412;10.992;2024-02-23T02:17:44;58.03;;;54.55;;
23432;SDS011;41331;45.412;10.992;2024-02-23T02:20:12;66.65;;;62.60;;
23432;SDS011;41331;45.412;10.992;2024-02-23T02:22:41;55.45;;;51.78;;
23432;SDS011;41331;45.412;10.992;2024-02-23T02:25:09;36.72;;;34.45;;
23432;SDS011;41331;45.412;10.992;2024-02-23T02:27:37;36.42;;;34.17;;
23432;SDS011;41331;45.412;10.992;2024-02-23T02:30:05;35.40;;;33.15;;
23432;SDS011;41331;45.412;10.992;2024-02-23T02:32:33;27.17;;;25.48;;
23432;SDS011;41331;45.412;10.992;2024-02-23T02:35:04;25.23;;;23.60;;
23432;SDS011;41331;45.412;10.992;2024-02-23T02:37:32;15.65;;;14.57;;
23432;SDS011;41331;45.412;10.992;2024-02-23T02:40:00;11.52;;;10.68;;
23432;SDS011;41331;45.412;10.992;2024-02-23T02:42:28;9.18;;;8.38;;
23432;SDS011;41331;45.412;10.992;2024-02-23T02:44:55;13.25;;;12.32;;
23432;SDS011;41331;45.412;10.992;2024-02-23T02:47:24;15.60;;;14.50;;
23432;SDS011;41331;45.412;10.992;2024-02-23T02:49:52;51.47;;;48.33;;
23432;SDS011;41331;45.412;10.992;2024-02-23T02:52:19;79.13;;;74.22;;
23432;SDS011;41331;45.412;10.992;2024-02-23T02:54:50;68.38;;;64.15;;
23432;SDS011;41331;45.412;10.992;2024-02-23T02:57:18;75.18;;;70.50;;
23432;SDS011;41331;45.412;10.992;2024-02-23T02:59:46;105.00;;;98.53;;
23432;SDS011;41331;45.412;10.992;2024-02-23T03:02:14;102.30;;;95.82;;
23432;SDS011;41331;45.412;10.992;2024-02-23T03:04:48;109.40;;;102.50;;
23432;SDS011;41331;45.412;10.992;2024-02-23T03:07:16;90.25;;;84.72;;
23432;SDS011;41331;45.412;10.992;2024-02-23T03:09:44;97.75;;;91.75;;
23432;SDS011;41331;45.412;10.992;2024-02-23T03:12:15;97.53;;;91.70;;
23432;SDS011;41331;45.412;10.992;2024-02-23T03:14:43;44.83;;;42.08;;
23432;SDS011;41331;45.412;10.992;2024-02-23T03:17:12;96.03;;;90.18;;
23432;SDS011;41331;45.412;10.992;2024-02-23T03:19:39;67.28;;;63.20;;
23432;SDS011;41331;45.412;10.992;2024-02-23T03:22:07;38.45;;;35.90;;
23432;SDS011;41331;45.412;10.992;2024-02-23T03:24:35;89.70;;;84.22;;
23432;SDS011;41331;45.412;10.992;2024-02-23T03:27:03;136.40;;;127.70;;
23432;SDS011;41331;45.412;10.992;2024-02-23T03:29:31;142.80;;;134.00;;
23432;SDS011;41331;45.412;10.992;2024-02-23T03:31:59;118.90;;;111.55;;
23432;SDS011;41331;45.412;10.992;2024-02-23T03:34:29;63.03;;;59.22;;
23432;SDS011;41331;45.412;10.992;2024-02-23T03:36:56;67.68;;;63.33;;
23432;SDS011;41331;45.412;10.992;2024-02-23T03:39:26;78.00;;;73.28;;
23432;SDS011;41331;45.412;10.992;2024-02-23T03:41:53;57.30;;;53.83;;
23432;SDS011;41331;45.412;10.992;2024-02-23T03:44:21;79.97;;;75.13;;
23432;SDS011;41331;45.412;10.992;2024-02-23T03:46:49;106.22;;;99.60;;
23432;SDS011;41331;45.412;10.992;2024-02-23T03:49:18;115.60;;;108.50;;
23432;SDS011;41331;45.412;10.992;2024-02-23T03:51:46;44.03;;;40.92;;
23432;SDS011;41331;45.412;10.992;2024-02-23T03:54:14;20.83;;;19.33;;
23432;SDS011;41331;45.412;10.992;2024-02-23T03:56:42;13.98;;;12.82;;
23432;SDS011;41331;45.412;10.992;2024-02-23T03:59:10;17.02;;;15.52;;
23432;SDS011;41331;45.412;10.992;2024-02-23T04:01:38;11.95;;;10.60;;
23432;SDS011;41331;45.412;10.992;2024-02-23T04:04:07;18.88;;;17.55;;
23432;SDS011;41331;45.412;10.992;2024-02-23T04:06:35;15.52;;;14.20;;
23432;SDS011;41331;45.412;10.992;2024-02-23T04:09:03;14.60;;;13.45;;
23432;SDS011;41331;45.412;10.992;2024-02-23T04:11:34;61.78;;;57.80;;
23432;SDS011;41331;45.412;10.992;2024-02-23T04:14:02;41.90;;;39.05;;
23432;SDS011;41331;45.412;10.992;2024-02-23T04:16:32;57.33;;;53.42;;
23432;SDS011;41331;45.412;10.992;2024-02-23T04:19:00;68.10;;;63.97;;
23432;SDS011;41331;45.412;10.992;2024-02-23T04:21:28;63.35;;;59.33;;
23432;SDS011;41331;45.412;10.992;2024-02-23T04:23:55;26.33;;;24.42;;
23432;SDS011;41331;45.412;10.992;2024-02-23T04:26:23;16.90;;;15.68;;
23432;SDS011;41331;45.412;10.992;2024-02-23T04:28:51;11.45;;;10.52;;
23432;SDS011;41331;45.412;10.992;2024-02-23T04:31:19;16.77;;;15.45;;
23432;SDS011;41331;45.412;10.992;2024-02-23T04:33:47;11.95;;;11.05;;
23432;SDS011;41331;45.412;10.992;2024-02-23T04:36:15;17.85;;;16.35;;
23432;SDS011;41331;45.412;10.992;2024-02-23T04:38:46;11.43;;;10.48;;
23432;SDS011;41331;45.412;10.992;2024-02-23T04:41:14;16.85;;;15.50;;
23432;SDS011;41331;45.412;10.992;2024-02-23T04:43:48;25.52;;;23.63;;
23432;SDS011;41331;45.412;10.992;2024-02-23T04:46:16;22.23;;;20.60;;
23432;SDS011;41331;45.412;10.992;2024-02-23T04:48:44;15.13;;;13.68;;
23432;SDS011;41331;45.412;10.992;2024-02-23T04:51:12;20.17;;;18.67;;
23432;SDS011;41331;45.412;10.992;2024-02-23T04:53:40;10.98;;;8.30;;
23432;SDS011;41331;45.412;10.992;2024-02-23T04:56:07;33.63;;;31.45;;
23432;SDS011;41331;45.412;10.992;2024-02-23T04:58:36;60.22;;;56.13;;
23432;SDS011;41331;45.412;10.992;2024-02-23T05:01:05;71.53;;;66.90;;
23432;SDS011;41331;45.412;10.992;2024-02-23T05:03:32;100.25;;;93.50;;
23432;SDS011;41331;45.412;10.992;2024-02-23T05:06:00;111.78;;;104.88;;
23432;SDS011;41331;45.412;10.992;2024-02-23T05:08:28;133.20;;;124.88;;
23432;SDS011;41331;45.412;10.992;2024-02-23T05:10:57;146.43;;;137.25;;
23432;SDS011;41331;45.412;10.992;2024-02-23T05:13:26;144.23;;;135.52;;
23432;SDS011;41331;45.412;10.992;2024-02-23T05:15:55;110.25;;;103.07;;
23432;SDS011;41331;45.412;10.992;2024-02-23T05:18:23;78.13;;;73.07;;
23432;SDS011;41331;45.412;10.992;2024-02-23T05:20:51;54.58;;;51.22;;
23432;SDS011;41331;45.412;10.992;2024-02-23T05:23:21;27.58;;;25.70;;
23432;SDS011;41331;45.412;10.992;2024-02-23T05:25:48;50.33;;;47.28;;
23432;SDS011;41331;45.412;10.992;2024-02-23T05:28:17;45.58;;;42.75;;
23432;SDS011;41331;45.412;10.992;2024-02-23T05:30:44;119.45;;;112.10;;
23432;SDS011;41331;45.412;10.992;2024-02-23T05:33:12;135.75;;;127.20;;
23432;SDS011;41331;45.412;10.992;2024-02-23T05:35:40;141.77;;;133.10;;
23432;SDS011;41331;45.412;10.992;2024-02-23T05:38:08;164.07;;;154.15;;
23432;SDS011;41331;45.412;10.992;2024-02-23T05:40:36;169.23;;;158.63;;
23432;SDS011;41331;45.412;10.992;2024-02-23T05:43:03;128.48;;;120.63;;
23432;SDS011;41331;45.412;10.992;2024-02-23T05:45:31;88.53;;;83.18;;
23432;SDS011;41331;45.412;10.992;2024-02-23T05:47:59;167.02;;;156.82;;
23432;SDS011;41331;45.412;10.992;2024-02-23T05:50:27;74.82;;;70.20;;
23432;SDS011;41331;45.412;10.992;2024-02-23T05:52:55;24.13;;;22.52;;
23432;SDS011;41331;45.412;10.992;2024-02-23T05:55:23;28.65;;;26.05;;
23432;SDS011;41331;45.412;10.992;2024-02-23T05:57:51;15.52;;;14.15;;
23432;SDS011;41331;45.412;10.992;2024-02-23T06:00:19;39.10;;;36.47;;
23432;SDS011;41331;45.412;10.992;2024-02-23T06:02:47;11.02;;;9.70;;
23432;SDS011;41331;45.412;10.992;2024-02-23T06:05:32;32.47;;;30.33;;
23432;SDS011;41331;45.412;10.992;2024-02-23T06:08:00;9.93;;;9.02;;
23432;SDS011;41331;45.412;10.992;2024-02-23T06:10:28;10.38;;;9.45;;
23432;SDS011;41331;45.412;10.992;2024-02-23T06:12:56;10.38;;;9.35;;
23432;SDS011;41331;45.412;10.992;2024-02-23T06:15:27;20.10;;;18.60;;
23432;SDS011;41331;45.412;10.992;2024-02-23T06:17:55;34.22;;;31.58;;
23432;SDS011;41331;45.412;10.992;2024-02-23T06:20:23;31.55;;;29.48;;
23432;SDS011;41331;45.412;10.992;2024-02-23T06:22:50;97.22;;;91.13;;
23432;SDS011;41331;45.412;10.992;2024-02-23T06:25:18;25.48;;;23.58;;
23432;SDS011;41331;45.412;10.992;2024-02-23T06:27:46;146.70;;;137.63;;
23432;SDS011;41331;45.412;10.992;2024-02-23T06:30:14;125.35;;;117.75;;
23432;SDS011;41331;45.412;10.992;2024-02-23T06:32:42;35.38;;;32.83;;
23432;SDS011;41331;45.412;10.992;2024-02-23T06:35:10;51.05;;;47.85;;
23432;SDS011;41331;45.412;10.992;2024-02-23T06:37:39;42.80;;;39.97;;
23432;SDS011;41331;45.412;10.992;2024-02-23T06:40:07;94.95;;;89.07;;
23432;SDS011;41331;45.412;10.992;2024-02-23T06:42:35;112.63;;;105.45;;
23432;SDS011;41331;45.412;10.992;2024-02-23T06:45:03;19.55;;;17.85;;
23432;SDS011;41331;45.412;10.992;2024-02-23T06:47:31;7.68;;;6.55;;
23432;SDS011;41331;45.412;10.992;2024-02-23T06:49:59;8.93;;;4.53;;
23432;SDS011;41331;45.412;10.992;2024-02-23T06:52:27;8.77;;;4.28;;
23432;SDS011;41331;45.412;10.992;2024-02-23T06:54:56;5.93;;;3.70;;
23432;SDS011;41331;45.412;10.992;2024-02-23T06:57:23;9.70;;;4.22;;
23432;SDS011;41331;45.412;10.992;2024-02-23T06:59:53;11.65;;;4.43;;
23432;SDS011;41331;45.412;10.992;2024-02-23T07:02:20;8.98;;;4.53;;
23432;SDS011;41331;45.412;10.992;2024-02-23T07:04:48;6.43;;;4.28;;
23432;SDS011;41331;45.412;10.992;2024-02-23T07:07:17;8.27;;;4.13;;
23432;SDS011;41331;45.412;10.992;2024-02-23T07:09:45;7.00;;;3.95;;
23432;SDS011;41331;45.412;10.992;2024-02-23T07:12:13;9.07;;;4.40;;
23432;SDS011;41331;45.412;10.992;2024-02-23T07:14:41;9.75;;;4.10;;
23432;SDS011;41331;45.412;10.992;2024-02-23T07:17:09;6.65;;;3.92;;
23432;SDS011;41331;45.412;10.992;2024-02-23T07:19:38;9.02;;;4.38;;
23432;SDS011;41331;45.412;10.992;2024-02-23T07:22:06;7.45;;;3.95;;
23432;SDS011;41331;45.412;10.992;2024-02-23T07:24:34;10.75;;;4.63;;
23432;SDS011;41331;45.412;10.992;2024-02-23T07:27:09;6.90;;;3.92;;
23432;SDS011;41331;45.412;10.992;2024-02-23T07:29:37;7.38;;;4.03;;
23432;SDS011;41331;45.412;10.992;2024-02-23T07:32:05;12.18;;;4.90;;
23432;SDS011;41331;45.412;10.992;2024-02-23T07:34:34;7.45;;;5.10;;
23432;SDS011;41331;45.412;10.992;2024-02-23T07:37:02;11.02;;;4.15;;
23432;SDS011;41331;45.412;10.992;2024-02-23T07:39:31;6.32;;;4.10;;
23432;SDS011;41331;45.412;10.992;2024-02-23T07:41:58;9.48;;;5.00;;
23432;SDS011;41331;45.412;10.992;2024-02-23T07:44:27;8.60;;;6.00;;
23432;SDS011;41331;45.412;10.992;2024-02-23T07:46:55;10.98;;;7.88;;
23432;SDS011;41331;45.412;10.992;2024-02-23T07:49:23;11.95;;;8.45;;
23432;SDS011;41331;45.412;10.992;2024-02-23T07:51:50;18.08;;;9.77;;
23432;SDS011;41331;45.412;10.992;2024-02-23T07:54:18;12.23;;;9.93;;
23432;SDS011;41331;45.412;10.992;2024-02-23T07:56:46;12.10;;;9.82;;
23432;SDS011;41331;45.412;10.992;2024-02-23T07:59:13;10.68;;;8.65;;
23432;SDS011;41331;45.412;10.992;2024-02-23T08:01:41;9.68;;;8.70;;
23432;SDS011;41331;45.412;10.992;2024-02-23T08:04:09;10.20;;;6.93;;
23432;SDS011;41331;45.412;10.992;2024-02-23T08:06:37;11.27;;;10.02;;
23432;SDS011;41331;45.412;10.992;2024-02-23T08:09:05;12.35;;;7.68;;
23432;SDS011;41331;45.412;10.992;2024-02-23T08:11:34;11.88;;;10.73;;
23432;SDS011;41331;45.412;10.992;2024-02-23T08:14:03;8.88;;;7.32;;
23432;SDS011;41331;45.412;10.992;2024-02-23T08:16:31;15.77;;;8.88;;
23432;SDS011;41331;45.412;10.992;2024-02-23T08:18:59;16.88;;;15.35;;
23432;SDS011;41331;45.412;10.992;2024-02-23T08:21:27;33.65;;;31.05;;
23432;SDS011;41331;45.412;10.992;2024-02-23T08:23:55;22.50;;;20.67;;
23432;SDS011;41331;45.412;10.992;2024-02-23T08:26:22;23.63;;;21.67;;
23432;SDS011;41331;45.412;10.992;2024-02-23T08:28:50;23.60;;;21.83;;
23432;SDS011;41331;45.412;10.992;2024-02-23T08:31:18;24.80;;;22.38;;
23432;SDS011;41331;45.412;10.992;2024-02-23T08:33:46;19.92;;;18.35;;
23432;SDS011;41331;45.412;10.992;2024-02-23T08:36:14;19.42;;;17.70;;
23432;SDS011;41331;45.412;10.992;2024-02-23T08:38:42;24.05;;;21.88;;
23432;SDS011;41331;45.412;10.992;2024-02-23T08:41:09;42.42;;;39.33;;
23432;SDS011;41331;45.412;10.992;2024-02-23T08:43:37;25.67;;;23.60;;
23432;SDS011;41331;45.412;10.992;2024-02-23T08:46:05;22.52;;;20.83;;
23432;SDS011;41331;45.412;10.992;2024-02-23T08:48:36;20.07;;;18.37;;
23432;SDS011;41331;45.412;10.992;2024-02-23T08:51:04;30.08;;;27.77;;
23432;SDS011;41331;45.412;10.992;2024-02-23T08:53:32;10.68;;;9.68;;
23432;SDS011;41331;45.412;10.992;2024-02-23T08:56:00;14.68;;;9.40;;
23432;SDS011;41331;45.412;10.992;2024-02-23T08:58:28;15.52;;;14.20;;
23432;SDS011;41331;45.412;10.992;2024-02-23T09:00:56;13.07;;;11.88;;
23432;SDS011;41331;45.412;10.992;2024-02-23T09:03:23;17.17;;;15.73;;
23432;SDS011;41331;45.412;10.992;2024-02-23T09:05:51;24.90;;;23.10;;
23432;SDS011;41331;45.412;10.992;2024-02-23T09:08:19;8.93;;;6.97;;
23432;SDS011;41331;45.412;10.992;2024-02-23T09:10:47;8.50;;;6.93;;
23432;SDS011;41331;45.412;10.992;2024-02-23T09:13:18;37.80;;;35.10;;
23432;SDS011;41331;45.412;10.992;2024-02-23T09:15:46;108.30;;;101.53;;
23432;SDS011;41331;45.412;10.992;2024-02-23T09:18:13;87.60;;;82.07;;
23432;SDS011;41331;45.412;10.992;2024-02-23T09:20:41;94.68;;;88.78;;
23432;SDS011;41331;45.412;10.992;2024-02-23T09:23:09;33.58;;;31.20;;
23432;SDS011;41331;45.412;10.992;2024-02-23T09:25:39;40.35;;;37.85;;
23432;SDS011;41331;45.412;10.992;2024-02-23T09:28:10;53.25;;;49.53;;
23432;SDS011;41331;45.412;10.992;2024-02-23T09:30:39;36.30;;;33.72;;
23432;SDS011;41331;45.412;10.992;2024-02-23T09:33:07;49.13;;;46.15;;
23432;SDS011;41331;45.412;10.992;2024-02-23T09:35:36;28.90;;;27.00;;
23432;SDS011;41331;45.412;10.992;2024-02-23T09:38:04;25.92;;;24.10;;
23432;SDS011;41331;45.412;10.992;2024-02-23T09:40:31;20.33;;;18.27;;
23432;SDS011;41331;45.412;10.992;2024-02-23T09:42:59;34.20;;;19.48;;
23432;SDS011;41331;45.412;10.992;2024-02-23T09:45:27;18.38;;;16.83;;
23432;SDS011;41331;45.412;10.992;2024-02-23T09:47:57;34.88;;;31.40;;
23432;SDS011;41331;45.412;10.992;2024-02-23T09:50:25;15.20;;;13.95;;
23432;SDS011;41331;45.412;10.992;2024-02-23T09:52:57;28.83;;;26.77;;
23432;SDS011;41331;45.412;10.992;2024-02-23T09:55:27;26.33;;;24.33;;
23432;SDS011;41331;45.412;10.992;2024-02-23T09:57:56;41.63;;;38.55;;
23432;SDS011;41331;45.412;10.992;2024-02-23T10:00:25;31.75;;;29.50;;
23432;SDS011;41331;45.412;10.992;2024-02-23T10:02:55;66.30;;;61.97;;
23432;SDS011;41331;45.412;10.992;2024-02-23T10:05:23;74.15;;;69.65;;
23432;SDS011;41331;45.412;10.992;2024-02-23T10:08:03;35.80;;;33.40;;
23432;SDS011;41331;45.412;10.992;2024-02-23T10:10:34;30.80;;;28.15;;
23432;SDS011;41331;45.412;10.992;2024-02-23T10:13:05;28.20;;;26.23;;
23432;SDS011;41331;45.412;10.992;2024-02-23T10:15:33;52.65;;;49.10;;
23432;SDS011;41331;45.412;10.992;2024-02-23T10:18:01;46.22;;;43.08;;
23432;SDS011;41331;45.412;10.992;2024-02-23T10:20:29;57.47;;;53.67;;
23432;SDS011;41331;45.412;10.992;2024-02-23T10:22:57;101.05;;;94.68;;
23432;SDS011;41331;45.412;10.992;2024-02-23T10:25:25;39.35;;;36.38;;
23432;SDS011;41331;45.412;10.992;2024-02-23T10:27:53;30.50;;;28.35;;
23432;SDS011;41331;45.412;10.992;2024-02-23T10:30:21;32.25;;;30.17;;
23432;SDS011;41331;45.412;10.992;2024-02-23T10:32:49;77.30;;;72.45;;
23432;SDS011;41331;45.412;10.992;2024-02-23T10:35:20;56.25;;;52.60;;
23432;SDS011;41331;45.412;10.992;2024-02-23T10:37:50;41.15;;;38.38;;
23432;SDS011;41331;45.412;10.992;2024-02-23T10:40:21;12.13;;;10.98;;
23432;SDS011;41331;45.412;10.992;2024-02-23T10:42:52;24.05;;;21.83;;
23432;SDS011;41331;45.412;10.992;2024-02-23T10:47:52;18.08;;;16.58;;
23432;SDS011;41331;45.412;10.992;2024-02-23T10:50:20;17.38;;;12.15;;
23432;SDS011;41331;45.412;10.992;2024-02-23T10:52:50;28.58;;;26.42;;
23432;SDS011;41331;45.412;10.992;2024-02-23T10:55:18;36.92;;;34.28;;
23432;SDS011;41331;45.412;10.992;2024-02-23T10:57:48;32.25;;;29.90;;
23432;SDS011;41331;45.412;10.992;2024-02-23T11:00:17;27.63;;;25.33;;
23432;SDS011;41331;45.412;10.992;2024-02-23T11:05:19;80.78;;;75.65;;
23432;SDS011;41331;45.412;10.992;2024-02-23T11:07:47;163.10;;;153.18;;
23432;SDS011;41331;45.412;10.992;2024-02-23T11:10:19;157.93;;;147.57;;
23432;SDS011;41331;45.412;10.992;2024-02-23T11:12:59;191.18;;;179.20;;
23432;SDS011;41331;45.412;10.992;2024-02-23T11:15:28;68.07;;;63.85;;
23432;SDS011;41331;45.412;10.992;2024-02-23T11:17:58;69.63;;;65.10;;
23432;SDS011;41331;45.412;10.992;2024-02-23T11:20:33;55.35;;;51.55;;
23432;SDS011;41331;45.412;10.992;2024-02-23T11:23:12;53.35;;;49.92;;
23432;SDS011;41331;45.412;10.992;2024-02-23T11:25:40;77.43;;;72.43;;
23432;SDS011;41331;45.412;10.992;2024-02-23T11:28:08;178.38;;;167.38;;
23432;SDS011;41331;45.412;10.992;2024-02-23T11:30:36;164.98;;;154.57;;
23432;SDS011;41331;45.412;10.992;2024-02-23T11:33:07;137.18;;;128.95;;
23432;SDS011;41331;45.412;10.992;2024-02-23T11:35:35;146.50;;;137.60;;
23432;SDS011;41331;45.412;10.992;2024-02-23T11:38:17;296.33;;;278.05;;
23432;SDS011;41331;45.412;10.992;2024-02-23T11:40:46;30.05;;;27.90;;
23432;SDS011;41331;45.412;10.992;2024-02-23T11:43:15;48.97;;;45.80;;
23432;SDS011;41331;45.412;10.992;2024-02-23T11:45:46;23.88;;;22.17;;
23432;SDS011;41331;45.412;10.992;2024-02-23T11:48:14;17.55;;;15.90;;
23432;SDS011;41331;45.412;10.992;2024-02-23T11:50:42;34.33;;;31.88;;
23432;SDS011;41331;45.412;10.992;2024-02-23T11:53:10;28.05;;;26.00;;
23432;SDS011;41331;45.412;10.992;2024-02-23T11:55:38;61.90;;;57.65;;
23432;SDS011;41331;45.412;10.992;2024-02-23T11:58:06;96.57;;;90.60;;
23432;SDS011;41331;45.412;10.992;2024-02-23T12:00:44;32.25;;;29.83;;
23432;SDS011;41331;45.412;10.992;2024-02-23T12:03:13;62.28;;;58.40;;
23432;SDS011;41331;45.412;10.992;2024-02-23T12:05:41;39.20;;;36.55;;
23432;SDS011;41331;45.412;10.992;2024-02-23T12:08:09;24.77;;;23.08;;
23432;SDS011;41331;45.412;10.992;2024-02-23T12:10:37;18.05;;;16.60;;
23432;SDS011;41331;45.412;10.992;2024-02-23T12:13:05;36.70;;;34.20;;
23432;SDS011;41331;45.412;10.992;2024-02-23T12:15:33;56.35;;;52.85;;
23432;SDS011;41331;45.412;10.992;2024-02-23T12:18:03;45.65;;;42.53;;
23432;SDS011;41331;45.412;10.992;2024-02-23T12:20:34;44.15;;;41.28;;
23432;SDS011;41331;45.412;10.992;2024-02-23T12:23:02;31.45;;;29.33;;
23432;SDS011;41331;45.412;10.992;2024-02-23T12:25:30;27.85;;;25.70;;
23432;SDS011;41331;45.412;10.992;2024-02-23T12:27:58;48.88;;;45.78;;
23432;SDS011;41331;45.412;10.992;2024-02-23T12:30:27;64.40;;;60.45;;
23432;SDS011;41331;45.412;10.992;2024-02-23T12:33:04;25.67;;;23.83;;
23432;SDS011;41331;45.412;10.992;2024-02-23T12:35:33;36.90;;;34.63;;
23432;SDS011;41331;45.412;10.992;2024-02-23T12:38:02;17.58;;;15.93;;
23432;SDS011;41331;45.412;10.992;2024-02-23T12:40:30;33.15;;;30.88;;
23432;SDS011;41331;45.412;10.992;2024-02-23T12:42:58;27.13;;;25.15;;
23432;SDS011;41331;45.412;10.992;2024-02-23T12:45:26;29.85;;;27.67;;
23432;SDS011;41331;45.412;10.992;2024-02-23T12:47:54;31.83;;;29.60;;
23432;SDS011;41331;45.412;10.992;2024-02-23T12:50:22;25.92;;;23.98;;
23432;SDS011;41331;45.412;10.992;2024-02-23T12:52:49;14.63;;;12.45;;
23432;SDS011;41331;45.412;10.992;2024-02-23T12:55:18;22.67;;;20.90;;
23432;SDS011;41331;45.412;10.992;2024-02-23T12:57:46;13.93;;;12.38;;
23432;SDS011;41331;45.412;10.992;2024-02-23T13:00:14;10.73;;;8.80;;
23432;SDS011;41331;45.412;10.992;2024-02-23T13:02:42;16.08;;;14.65;;
23432;SDS011;41331;45.412;10.992;2024-02-23T13:05:10;18.52;;;17.25;;
23432;SDS011;41331;45.412;10.992;2024-02-23T13:07:38;23.77;;;22.15;;
23432;SDS011;41331;45.412;10.992;2024-02-23T13:10:08;20.65;;;19.33;;
23432;SDS011;41331;45.412;10.992;2024-02-23T13:12:35;16.77;;;15.50;;
23432;SDS011;41331;45.412;10.992;2024-02-23T13:15:03;24.92;;;23.30;;
23432;SDS011;41331;45.412;10.992;2024-02-23T13:17:31;18.90;;;17.60;;
23432;SDS011;41331;45.412;10.992;2024-02-23T13:19:59;13.30;;;12.23;;
23432;SDS011;41331;45.412;10.992;2024-02-23T13:22:38;18.50;;;17.13;;
23432;SDS011;41331;45.412;10.992;2024-02-23T13:25:06;15.43;;;14.27;;
23432;SDS011;41331;45.412;10.992;2024-02-23T13:27:34;35.08;;;32.92;;
23432;SDS011;41331;45.412;10.992;2024-02-23T13:30:03;45.95;;;43.22;;
23432;SDS011;41331;45.412;10.992;2024-02-23T13:32:31;47.28;;;44.25;;
23432;SDS011;41331;45.412;10.992;2024-02-23T13:34:59;44.97;;;42.13;;
23432;SDS011;41331;45.412;10.992;2024-02-23T13:37:31;29.92;;;28.05;;
23432;SDS011;41331;45.412;10.992;2024-02-23T13:40:00;19.65;;;18.25;;
23432;SDS011;41331;45.412;10.992;2024-02-23T13:42:29;43.60;;;40.80;;
23432;SDS011;41331;45.412;10.992;2024-02-23T13:44:56;27.05;;;25.27;;
23432;SDS011;41331;45.412;10.992;2024-02-23T13:47:26;58.90;;;55.33;;
23432;SDS011;41331;45.412;10.992;2024-02-23T13:49:54;116.72;;;109.75;;
23432;SDS011;41331;45.412;10.992;2024-02-23T13:52:22;220.10;;;206.43;;
23432;SDS011;41331;45.412;10.992;2024-02-23T13:54:50;346.20;;;321.58;;
23432;SDS011;41331;45.412;10.992;2024-02-23T13:57:18;443.70;;;409.70;;
23432;SDS011;41331;45.412;10.992;2024-02-23T13:59:46;294.90;;;275.67;;
23432;SDS011;41331;45.412;10.992;2024-02-23T14:02:15;178.07;;;166.95;;
23432;SDS011;41331;45.412;10.992;2024-02-23T14:04:47;196.65;;;184.85;;
23432;SDS011;41331;45.412;10.992;2024-02-23T14:07:15;230.98;;;216.88;;
23432;SDS011;41331;45.412;10.992;2024-02-23T14:09:43;175.80;;;165.02;;
23432;SDS011;41331;45.412;10.992;2024-02-23T14:12:11;311.27;;;290.25;;
23432;SDS011;41331;45.412;10.992;2024-02-23T14:14:38;528.17;;;424.90;;
23432;SDS011;41331;45.412;10.992;2024-02-23T14:17:06;179.52;;;168.50;;
23432;SDS011;41331;45.412;10.992;2024-02-23T14:19:34;184.95;;;173.30;;
23432;SDS011;41331;45.412;10.992;2024-02-23T14:22:05;59.33;;;55.67;;